createdAt,value
2022-10-19T00:01:19.063Z,9.85
2022-10-19T00:03:50.649Z,9.77
2022-10-19T00:06:26.344Z,10.13
2022-10-19T00:08:58.341Z,10.25
2022-10-19T00:11:27.732Z,10.05
2022-10-19T00:13:57.432Z,10.32
2022-10-19T00:16:28.260Z,10.88
2022-10-19T00:19:01.019Z,11.13
2022-10-19T00:21:29.764Z,10.35
2022-10-19T00:23:58.146Z,11.10
2022-10-19T00:26:26.088Z,11.18
2022-10-19T00:28:55.649Z,11.85
2022-10-19T00:31:24.530Z,12.10
2022-10-19T00:33:52.620Z,11.68
2022-10-19T00:36:22.912Z,11.20
2022-10-19T00:38:51.315Z,11.40
2022-10-19T00:41:20.634Z,11.45
2022-10-19T00:44:00.481Z,11.90
2022-10-19T00:46:31.430Z,11.57
2022-10-19T00:49:10.895Z,11.02
2022-10-19T00:51:44.543Z,11.25
2022-10-19T00:54:13.164Z,11.23
2022-10-19T00:56:43.908Z,11.17
2022-10-19T00:59:16.008Z,11.27
2022-10-19T01:01:47.702Z,11.43
2022-10-19T01:04:16.412Z,10.93
2022-10-19T01:06:44.865Z,10.35
2022-10-19T01:09:12.928Z,9.73
2022-10-19T01:11:43.590Z,10.40
2022-10-19T01:14:48.751Z,9.82
2022-10-19T01:17:28.711Z,9.68
2022-10-19T01:20:15.042Z,9.23
2022-10-19T01:23:20.492Z,9.27
2022-10-19T01:26:17.418Z,8.82
2022-10-19T01:28:58.362Z,8.73
2022-10-19T01:31:50.671Z,9.25
2022-10-19T01:34:44.052Z,8.35
2022-10-19T01:37:58.995Z,8.90
2022-10-19T01:40:49.114Z,8.02
2022-10-19T01:43:50.401Z,8.25
2022-10-19T01:46:28.944Z,8.55
2022-10-19T01:49:34.861Z,7.82
2022-10-19T01:52:10.133Z,7.80
2022-10-19T01:54:45.529Z,7.47
2022-10-19T01:57:18.874Z,7.78
2022-10-19T01:59:49.301Z,6.68
2022-10-19T02:02:20.836Z,6.72
2022-10-19T02:04:50.815Z,7.07
2022-10-19T02:07:23.753Z,6.95
2022-10-19T02:09:52.281Z,6.88
2022-10-19T02:12:22.386Z,7.25
2022-10-19T02:14:55.818Z,6.55
2022-10-19T02:17:32.965Z,7.07
2022-10-19T02:20:02.556Z,6.15
2022-10-19T02:22:31.078Z,6.03
2022-10-19T02:24:59.568Z,6.25
2022-10-19T02:27:28.467Z,5.75
2022-10-19T02:29:56.981Z,5.83
2022-10-19T02:32:26.103Z,5.93
2022-10-19T02:34:56.354Z,6.13
2022-10-19T02:37:25.741Z,6.30
2022-10-19T02:39:53.962Z,6.25
2022-10-19T02:42:42.292Z,6.10
2022-10-19T02:45:32.603Z,5.70
2022-10-19T02:48:07.861Z,6.45
2022-10-19T02:50:36.116Z,6.07
2022-10-19T02:53:04.230Z,5.90
2022-10-19T02:55:32.383Z,5.70
2022-10-19T02:58:00.592Z,5.38
2022-10-19T03:00:28.926Z,6.20
2022-10-19T03:02:57.171Z,6.07
2022-10-19T03:05:26.111Z,6.30
2022-10-19T03:07:54.141Z,6.10
2022-10-19T03:10:22.971Z,6.25
2022-10-19T03:12:50.930Z,6.20
2022-10-19T03:15:20.602Z,6.40
2022-10-19T03:17:48.657Z,6.38
2022-10-19T03:20:16.856Z,6.30
2022-10-19T03:22:44.985Z,6.60
2022-10-19T03:25:13.121Z,6.47
2022-10-19T03:27:40.948Z,6.30
2022-10-19T03:30:10.181Z,7.93
2022-10-19T03:32:38.522Z,6.60
2022-10-19T03:35:07.901Z,6.72
2022-10-19T03:37:36.266Z,6.50
2022-10-19T03:40:04.781Z,6.95
2022-10-19T03:42:32.913Z,6.53
2022-10-19T03:45:01.002Z,6.30
2022-10-19T03:47:29.272Z,6.55
2022-10-19T03:49:57.929Z,5.95
2022-10-19T03:52:25.795Z,5.85
2022-10-19T03:54:53.856Z,6.07
2022-10-19T03:57:21.903Z,5.73
2022-10-19T03:59:49.742Z,5.65
2022-10-19T04:02:18.825Z,6.05
2022-10-19T04:04:47.210Z,6.20
2022-10-19T04:07:15.033Z,5.95
2022-10-19T04:09:43.417Z,6.47
2022-10-19T04:12:11.517Z,6.45
2022-10-19T04:14:56.355Z,6.22
2022-10-19T04:17:27.033Z,6.13
2022-10-19T04:19:55.180Z,6.22
2022-10-19T04:22:23.312Z,6.33
2022-10-19T04:24:51.407Z,6.85
2022-10-19T04:27:20.569Z,6.30
2022-10-19T04:29:49.160Z,6.50
2022-10-19T04:32:17.186Z,7.28
2022-10-19T04:34:44.978Z,6.90
2022-10-19T04:37:13.082Z,7.07
2022-10-19T04:39:44.103Z,6.97
2022-10-19T04:42:12.056Z,6.88
2022-10-19T04:44:40.436Z,6.90
2022-10-19T04:47:08.758Z,7.30
2022-10-19T04:49:36.883Z,7.35
2022-10-19T04:52:04.932Z,7.80
2022-10-19T04:54:32.912Z,7.80
2022-10-19T04:57:01.308Z,7.70
2022-10-19T04:59:30.853Z,7.80
2022-10-19T05:02:00.877Z,7.97
2022-10-19T05:04:30.675Z,8.05
2022-10-19T05:06:59.378Z,8.07
2022-10-19T05:09:28.645Z,7.60
2022-10-19T05:11:56.624Z,7.50
2022-10-19T05:14:24.752Z,7.32
2022-10-19T05:16:52.748Z,7.65
2022-10-19T05:19:20.607Z,7.43
2022-10-19T05:21:48.667Z,7.30
2022-10-19T05:24:16.674Z,7.87
2022-10-19T05:26:44.737Z,6.97
2022-10-19T05:29:13.802Z,7.43
2022-10-19T05:31:42.357Z,7.88
2022-10-19T05:34:10.352Z,8.05
2022-10-19T05:36:40.408Z,7.33
2022-10-19T05:39:13.718Z,8.10
2022-10-19T05:41:45.039Z,7.38
2022-10-19T05:44:21.297Z,7.88
2022-10-19T05:46:51.467Z,7.82
2022-10-19T05:49:22.158Z,7.50
2022-10-19T05:51:51.288Z,8.10
2022-10-19T05:54:20.365Z,8.57
2022-10-19T05:56:49.968Z,9.27
2022-10-19T05:59:20.305Z,9.10
2022-10-19T06:01:49.125Z,10.00
2022-10-19T06:06:45.976Z,12.15
2022-10-19T06:09:13.987Z,12.45
2022-10-19T06:11:43.217Z,13.02
2022-10-19T06:14:16.847Z,12.57
2022-10-19T06:16:46.409Z,11.20
2022-10-19T06:19:14.598Z,11.40
2022-10-19T06:21:45.889Z,12.10
2022-10-19T06:24:14.248Z,12.63
2022-10-19T06:26:42.089Z,13.00
2022-10-19T06:29:10.466Z,11.85
2022-10-19T06:31:39.107Z,10.35
2022-10-19T06:34:07.577Z,10.82
2022-10-19T06:36:35.958Z,10.35
2022-10-19T06:39:04.325Z,10.03
2022-10-19T06:41:33.130Z,10.55
2022-10-19T06:44:18.488Z,9.07
2022-10-19T06:46:46.631Z,9.38
2022-10-19T06:49:15.034Z,9.07
2022-10-19T06:51:43.215Z,8.67
2022-10-19T06:54:11.165Z,8.32
2022-10-19T06:56:39.279Z,8.65
2022-10-19T06:59:07.106Z,7.95
2022-10-19T07:01:36.035Z,8.20
2022-10-19T07:04:03.941Z,7.73
2022-10-19T07:06:32.082Z,7.18
2022-10-19T07:08:59.994Z,7.47
2022-10-19T07:11:27.903Z,6.97
2022-10-19T07:13:55.842Z,7.05
2022-10-19T07:16:23.980Z,7.27
2022-10-19T07:18:53.531Z,7.43
2022-10-19T07:21:23.600Z,7.55
2022-10-19T07:23:51.718Z,7.50
2022-10-19T07:26:27.393Z,7.13
2022-10-19T07:28:57.707Z,8.00
2022-10-19T07:31:27.342Z,7.65
2022-10-19T07:34:00.789Z,9.52
2022-10-19T07:36:30.892Z,10.38
2022-10-19T07:39:01.157Z,9.70
2022-10-19T07:41:29.529Z,9.20
2022-10-19T07:43:58.309Z,8.85
2022-10-19T07:46:29.855Z,8.18
2022-10-19T07:48:57.702Z,7.22
2022-10-19T07:51:25.968Z,7.13
2022-10-19T07:53:54.347Z,7.30
2022-10-19T07:56:25.047Z,8.52
2022-10-19T07:58:55.703Z,8.45
2022-10-19T08:01:30.689Z,7.97
2022-10-19T08:06:49.133Z,6.83
2022-10-19T08:09:40.145Z,7.13
2022-10-19T08:12:06.189Z,6.50
2022-10-19T08:14:34.292Z,7.28
2022-10-19T08:17:02.485Z,7.72
2022-10-19T08:19:30.396Z,8.10
2022-10-19T08:21:58.547Z,8.10
2022-10-19T08:24:26.284Z,8.73
2022-10-19T08:26:54.354Z,9.48
2022-10-19T08:29:23.777Z,12.02
2022-10-19T08:31:53.722Z,13.33
2022-10-19T08:34:24.477Z,12.48
2022-10-19T08:36:52.473Z,11.05
2022-10-19T08:39:20.205Z,9.65
2022-10-19T08:42:05.502Z,8.93
2022-10-19T08:45:01.392Z,9.37
2022-10-19T08:47:53.723Z,8.10
2022-10-19T08:50:35.133Z,8.45
2022-10-19T08:53:06.758Z,9.43
2022-10-19T08:56:03.709Z,9.20
2022-10-19T08:58:32.606Z,7.17
2022-10-19T09:01:36.915Z,7.68
2022-10-19T09:04:08.866Z,7.28
2022-10-19T09:07:02.990Z,6.32
2022-10-19T09:09:32.648Z,7.20
2022-10-19T09:12:06.115Z,6.90
2022-10-19T09:14:52.459Z,6.50
2022-10-19T09:17:21.165Z,7.00
2022-10-19T09:19:48.925Z,6.95
2022-10-19T09:22:35.635Z,6.50
2022-10-19T09:25:20.283Z,5.30
2022-10-19T09:27:50.494Z,5.97
2022-10-19T09:30:23.872Z,5.53
2022-10-19T09:33:02.260Z,5.35
2022-10-19T09:35:41.460Z,5.35
2022-10-19T09:38:14.727Z,5.40
2022-10-19T09:40:43.113Z,5.57
2022-10-19T09:43:22.222Z,5.90
2022-10-19T09:45:59.950Z,5.65
2022-10-19T09:48:51.431Z,4.70
2022-10-19T09:51:20.677Z,5.60
2022-10-19T09:53:55.092Z,5.03
2022-10-19T09:56:28.202Z,5.63
2022-10-19T09:58:58.914Z,5.22
2022-10-19T10:01:45.033Z,5.00
2022-10-19T10:04:18.712Z,5.00
2022-10-19T10:06:50.101Z,5.03
2022-10-19T10:09:20.377Z,4.78
2022-10-19T10:11:51.380Z,5.38
2022-10-19T10:14:22.507Z,4.88
2022-10-19T10:17:02.278Z,4.80
2022-10-19T10:19:32.102Z,4.65
2022-10-19T10:22:01.170Z,4.70
2022-10-19T10:24:31.992Z,4.57
2022-10-19T10:27:06.162Z,4.50
2022-10-19T10:29:37.053Z,4.90
2022-10-19T10:32:21.873Z,4.22
2022-10-19T10:35:17.572Z,4.30
2022-10-19T10:37:48.125Z,4.47
2022-10-19T10:40:29.421Z,4.50
2022-10-19T10:43:02.981Z,4.37
2022-10-19T10:45:37.405Z,4.40
2022-10-19T10:48:29.105Z,4.30
2022-10-19T10:51:00.339Z,4.65
2022-10-19T10:53:44.520Z,4.70
2022-10-19T10:56:41.175Z,4.60
2022-10-19T10:59:24.751Z,4.20
2022-10-19T11:02:15.652Z,4.85
2022-10-19T11:04:56.102Z,5.25
2022-10-19T11:07:27.315Z,4.82
2022-10-19T11:09:59.689Z,4.87
2022-10-19T11:13:03.779Z,5.00
2022-10-19T11:15:41.899Z,4.43
2022-10-19T11:18:28.441Z,5.15
2022-10-19T11:21:02.102Z,4.60
2022-10-19T11:23:50.024Z,4.27
2022-10-19T11:26:37.807Z,4.40
2022-10-19T11:29:23.076Z,4.07
2022-10-19T11:31:55.835Z,4.38
2022-10-19T11:34:46.901Z,4.45
2022-10-19T11:37:49.718Z,4.10
2022-10-19T11:40:25.082Z,4.07
2022-10-19T11:43:11.066Z,3.78
2022-10-19T11:45:53.462Z,3.80
2022-10-19T11:48:29.468Z,3.72
2022-10-19T11:51:22.266Z,3.43
2022-10-19T11:53:50.147Z,3.60
2022-10-19T11:56:51.497Z,3.80
2022-10-19T11:59:53.776Z,4.70
2022-10-19T12:02:39.970Z,6.05
2022-10-19T12:05:11.062Z,6.00
2022-10-19T12:08:17.240Z,6.30
2022-10-19T12:11:01.364Z,5.88
2022-10-19T12:13:47.764Z,5.65
2022-10-19T12:16:17.835Z,5.82
2022-10-19T12:18:52.461Z,5.63
2022-10-19T12:21:39.688Z,5.88
2022-10-19T12:24:18.048Z,5.40
2022-10-19T12:26:47.474Z,5.40
2022-10-19T12:29:41.213Z,5.80
2022-10-19T12:32:14.297Z,5.00
2022-10-19T12:34:53.461Z,5.47
2022-10-19T12:37:42.691Z,5.53
2022-10-19T12:40:38.235Z,5.25
2022-10-19T12:43:14.608Z,5.47
2022-10-19T12:45:52.304Z,5.50
2022-10-19T12:48:23.239Z,5.80
2022-10-19T12:50:54.123Z,6.00
2022-10-19T12:53:28.266Z,5.22
2022-10-19T12:56:20.760Z,5.43
2022-10-19T12:59:01.993Z,5.40
2022-10-19T13:01:37.174Z,5.43
2022-10-19T13:04:14.901Z,5.90
2022-10-19T13:06:51.924Z,5.18
2022-10-19T13:09:36.641Z,5.45
2022-10-19T13:12:19.908Z,5.13
2022-10-19T13:14:51.944Z,5.50
2022-10-19T13:17:35.103Z,5.70
2022-10-19T13:20:15.372Z,5.55
2022-10-19T13:22:50.528Z,5.35
2022-10-19T13:25:34.597Z,6.00
2022-10-19T13:28:09.981Z,5.77
2022-10-19T13:30:44.338Z,5.70
2022-10-19T13:33:35.470Z,6.30
2022-10-19T13:36:08.306Z,5.72
2022-10-19T13:38:49.204Z,6.65
2022-10-19T13:41:19.087Z,6.67
2022-10-19T13:44:12.539Z,6.47
2022-10-19T13:46:59.350Z,6.68
2022-10-19T13:49:39.370Z,6.57
2022-10-19T13:52:33.712Z,7.40
2022-10-19T13:55:20.006Z,7.63
2022-10-19T13:58:04.829Z,7.40
2022-10-19T14:00:57.752Z,7.47
2022-10-19T14:03:50.149Z,7.85
2022-10-19T14:06:41.596Z,7.93
2022-10-19T14:09:23.795Z,7.80
2022-10-19T14:11:54.659Z,7.75
2022-10-19T14:14:25.307Z,8.48
2022-10-19T14:17:01.185Z,8.10
2022-10-19T14:19:34.425Z,8.48
2022-10-19T14:22:36.841Z,7.67
2022-10-19T14:25:22.148Z,8.77
2022-10-19T14:27:58.629Z,8.25
2022-10-19T14:30:32.744Z,7.63
2022-10-19T14:33:07.046Z,7.30
2022-10-19T14:35:41.199Z,8.10
2022-10-19T14:38:16.384Z,8.40
2022-10-19T14:40:44.647Z,7.80
2022-10-19T14:43:33.580Z,8.43
2022-10-19T14:46:08.076Z,8.13
2022-10-19T14:48:38.121Z,8.30
2022-10-19T14:51:23.834Z,7.90
2022-10-19T14:54:02.440Z,8.27
2022-10-19T14:56:59.627Z,8.13
2022-10-19T14:59:52.923Z,7.95
2022-10-19T15:02:24.549Z,6.97
2022-10-19T15:04:54.512Z,7.18
2022-10-19T15:07:40.164Z,6.88
2022-10-19T15:10:22.446Z,7.20
2022-10-19T15:12:52.254Z,6.30
2022-10-19T15:15:29.801Z,6.93
2022-10-19T15:18:00.864Z,7.25
2022-10-19T15:20:49.083Z,6.90
2022-10-19T15:23:48.745Z,6.60
2022-10-19T15:26:22.658Z,7.35
2022-10-19T15:28:51.759Z,7.57
2022-10-19T15:31:30.148Z,7.45
2022-10-19T15:34:01.331Z,7.80
2022-10-19T15:36:31.677Z,7.60
2022-10-19T15:39:25.579Z,8.25
2022-10-19T15:41:55.616Z,8.77
2022-10-19T15:44:55.932Z,8.40
2022-10-19T15:47:25.276Z,8.20
2022-10-19T15:50:04.543Z,8.60
2022-10-19T15:52:35.212Z,9.15
2022-10-19T15:55:04.420Z,9.57
2022-10-19T15:57:35.633Z,9.80
2022-10-19T16:00:22.737Z,10.38
2022-10-19T16:02:50.966Z,10.63
2022-10-19T16:05:19.050Z,10.35
2022-10-19T16:07:47.587Z,11.53
2022-10-19T16:10:19.085Z,11.48
2022-10-19T16:12:47.357Z,10.50
2022-10-19T16:15:22.612Z,10.50
2022-10-19T16:17:56.207Z,10.30
2022-10-19T16:20:26.091Z,10.60
2022-10-19T16:22:54.603Z,12.35
2022-10-19T16:25:22.916Z,12.18
2022-10-19T16:27:50.944Z,11.23
2022-10-19T16:30:19.363Z,10.68
2022-10-19T16:32:50.429Z,13.10
2022-10-19T16:35:18.554Z,17.80
2022-10-19T16:37:46.508Z,26.42
2022-10-19T16:40:14.652Z,17.00
2022-10-19T16:42:42.834Z,16.23
2022-10-19T16:45:11.796Z,14.73
2022-10-19T16:47:39.913Z,11.65
2022-10-19T16:50:08.586Z,10.73
2022-10-19T16:52:36.822Z,11.15
2022-10-19T16:55:05.553Z,10.93
2022-10-19T16:57:34.820Z,11.47
2022-10-19T17:00:04.062Z,10.25
2022-10-19T17:02:32.471Z,12.93
2022-10-19T17:05:00.782Z,12.43
2022-10-19T17:07:28.801Z,12.00
2022-10-19T17:09:56.802Z,12.63
2022-10-19T17:12:24.730Z,13.23
2022-10-19T17:14:52.781Z,12.05
2022-10-19T17:17:21.703Z,12.30
2022-10-19T17:19:49.944Z,12.55
2022-10-19T17:22:17.911Z,12.70
2022-10-19T17:24:47.827Z,13.25
2022-10-19T17:27:16.081Z,13.85
2022-10-19T17:29:44.290Z,15.23
2022-10-19T17:32:12.292Z,18.27
2022-10-19T17:34:40.331Z,17.17
2022-10-19T17:37:08.311Z,17.35
2022-10-19T17:39:36.402Z,18.42
2022-10-19T17:42:05.402Z,17.27
2022-10-19T17:44:33.455Z,14.55
2022-10-19T17:47:01.809Z,14.77
2022-10-19T17:49:30.309Z,15.38
2022-10-19T17:51:58.702Z,14.63
2022-10-19T17:54:26.796Z,13.80
2022-10-19T17:56:54.938Z,13.68
2022-10-19T17:59:34.712Z,14.75
2022-10-19T18:02:11.382Z,17.37
2022-10-19T18:04:42.668Z,16.83
2022-10-19T18:07:10.846Z,24.83
2022-10-19T18:09:38.957Z,19.45
2022-10-19T18:12:09.053Z,18.98
2022-10-19T18:14:37.081Z,52.83
2022-10-19T18:17:05.001Z,59.00
2022-10-19T18:19:33.154Z,54.92
2022-10-19T18:22:01.157Z,37.95
2022-10-19T18:24:29.467Z,41.40
2022-10-19T18:26:57.557Z,30.98
2022-10-19T18:29:27.016Z,22.33
2022-10-19T18:31:55.461Z,18.80
2022-10-19T18:34:26.005Z,15.90
2022-10-19T18:36:54.661Z,15.45
2022-10-19T18:39:23.091Z,15.52
2022-10-19T18:41:55.141Z,14.80
2022-10-19T18:44:27.161Z,15.40
2022-10-19T18:46:57.486Z,14.98
2022-10-19T18:49:25.739Z,15.20
2022-10-19T18:51:55.656Z,14.48
2022-10-19T18:54:28.265Z,14.35
2022-10-19T18:56:57.037Z,12.98
2022-10-19T18:59:25.016Z,14.67
2022-10-19T19:01:53.210Z,14.13
2022-10-19T19:04:21.170Z,14.40
2022-10-19T19:06:49.153Z,14.35
2022-10-19T19:09:19.288Z,14.13
2022-10-19T19:11:48.199Z,14.07
2022-10-19T19:14:18.948Z,14.07
2022-10-19T19:16:47.582Z,13.63
2022-10-19T19:19:17.217Z,12.80
2022-10-19T19:21:46.667Z,13.55
2022-10-19T19:24:17.990Z,12.60
2022-10-19T19:26:50.551Z,12.90
2022-10-19T19:29:19.664Z,13.23
2022-10-19T19:31:48.686Z,12.10
2022-10-19T19:34:18.005Z,12.18
2022-10-19T19:36:49.274Z,12.40
2022-10-19T19:39:20.898Z,12.10
2022-10-19T19:41:50.563Z,12.88
2022-10-19T19:44:20.011Z,11.85
2022-10-19T19:46:48.228Z,13.10
2022-10-19T19:49:16.731Z,12.65
2022-10-19T19:51:44.940Z,11.67
2022-10-19T19:54:12.768Z,12.65
2022-10-19T19:56:42.676Z,11.88
2022-10-19T19:59:14.188Z,12.55
2022-10-19T20:01:42.468Z,12.68
2022-10-19T20:04:11.017Z,12.40
2022-10-19T20:06:43.311Z,11.15
2022-10-19T20:09:12.234Z,11.57
2022-10-19T20:11:42.603Z,11.45
2022-10-19T20:14:12.175Z,12.50
2022-10-19T20:16:40.169Z,12.63
2022-10-19T20:19:13.977Z,12.73
2022-10-19T20:21:42.592Z,12.95
2022-10-19T20:24:10.818Z,12.35
2022-10-19T20:26:41.922Z,13.00
2022-10-19T20:29:12.860Z,12.40
2022-10-19T20:31:41.787Z,12.25
2022-10-19T20:34:14.355Z,12.48
2022-10-19T20:36:43.302Z,13.07
2022-10-19T20:39:11.537Z,12.82
2022-10-19T20:41:40.382Z,12.17
2022-10-19T20:44:08.357Z,11.40
2022-10-19T20:46:37.552Z,11.82
2022-10-19T20:49:06.419Z,11.07
2022-10-19T20:51:39.147Z,11.70
2022-10-19T20:54:13.086Z,11.37
2022-10-19T20:56:42.862Z,10.98
2022-10-19T20:59:17.642Z,11.90
2022-10-19T21:01:49.116Z,11.68
2022-10-19T21:04:17.486Z,11.43
2022-10-19T21:06:48.797Z,11.70
2022-10-19T21:09:20.435Z,10.77
2022-10-19T21:11:52.446Z,11.48
2022-10-19T21:14:27.002Z,10.38
2022-10-19T21:17:00.847Z,11.10
2022-10-19T21:19:30.089Z,10.53
2022-10-19T21:22:02.326Z,10.43
2022-10-19T21:24:39.981Z,10.63
2022-10-19T21:27:09.903Z,10.20
2022-10-19T21:29:38.705Z,10.38
2022-10-19T21:32:06.942Z,10.20
2022-10-19T21:34:35.209Z,9.93
2022-10-19T21:37:03.145Z,10.63
2022-10-19T21:39:31.240Z,10.88
2022-10-19T21:41:59.354Z,10.15
2022-10-19T21:44:27.433Z,10.20
2022-10-19T21:46:55.756Z,9.97
2022-10-19T21:49:23.893Z,9.98
2022-10-19T21:51:54.477Z,10.30
2022-10-19T21:54:25.417Z,9.55
2022-10-19T21:56:55.976Z,9.38
2022-10-19T21:59:25.270Z,9.20
2022-10-19T22:01:55.155Z,9.10
2022-10-19T22:04:24.144Z,8.82
2022-10-19T22:06:52.189Z,8.70
2022-10-19T22:09:22.322Z,9.60
2022-10-19T22:11:50.475Z,9.18
2022-10-19T22:14:18.709Z,7.83
2022-10-19T22:16:46.791Z,8.88
2022-10-19T22:19:15.510Z,9.10
2022-10-19T22:21:43.682Z,8.70
2022-10-19T22:24:14.704Z,8.65
2022-10-19T22:26:45.898Z,8.70
2022-10-19T22:29:14.182Z,8.73
2022-10-19T22:31:42.369Z,8.50
2022-10-19T22:34:13.903Z,9.10
2022-10-19T22:36:42.299Z,8.52
2022-10-19T22:39:10.665Z,8.50
2022-10-19T22:42:34.710Z,8.70
2022-10-19T22:45:03.431Z,8.55
2022-10-19T22:47:31.650Z,8.63
2022-10-19T22:49:59.777Z,8.50
2022-10-19T22:52:28.196Z,8.47
2022-10-19T22:54:56.508Z,8.75
2022-10-19T22:57:24.623Z,8.48
2022-10-19T22:59:55.426Z,7.82
2022-10-19T23:02:23.816Z,7.60
2022-10-19T23:04:51.887Z,7.50
2022-10-19T23:07:19.760Z,7.67
2022-10-19T23:09:47.822Z,7.90
2022-10-19T23:12:15.809Z,7.80
2022-10-19T23:14:43.575Z,7.82
2022-10-19T23:17:11.642Z,7.65
2022-10-19T23:19:39.685Z,7.30
2022-10-19T23:22:08.035Z,7.07
2022-10-19T23:24:35.732Z,7.90
2022-10-19T23:27:31.517Z,6.95
2022-10-19T23:30:02.455Z,7.20
2022-10-19T23:32:30.533Z,6.97
2022-10-19T23:34:58.559Z,7.70
2022-10-19T23:37:26.621Z,7.07
2022-10-19T23:39:54.558Z,7.35
2022-10-19T23:42:22.574Z,7.70
2022-10-19T23:44:50.500Z,7.33
2022-10-19T23:47:18.355Z,7.10
2022-10-19T23:49:46.201Z,7.78
2022-10-19T23:52:14.251Z,7.60
2022-10-19T23:54:42.020Z,7.72
2022-10-19T23:57:11.069Z,7.47
2022-10-19T23:59:38.853Z,7.68
